Time;durP1;ratioP1;P1;durP2;ratioP2;P2;SDS_P1;SDS_P2;PMS_P1;PMS_P2;Temp;Humidity;BMP_temperature;BMP_pressure;BME280_temperature;BME280_humidity;BME280_pressure;Samples;Min_cycle;Max_cycle;Signal;HPM_P1;HPM_P2
2023/04/08 00:02:06;;;;;;;;;;;5.90;69.10;;;;;;4047908;29;20156;-84
2023/04/08 00:04:27;;;;;;;;;;;5.90;69.10;;;;;;4042501;29;20312;-83
2023/04/08 00:06:47;;;;;;;;;;;5.90;69.30;;;;;;4052315;29;20632;-83
2023/04/08 00:09:08;;;;;;;;;;;5.90;69.20;;;;;;4052380;29;20409;-84
2023/04/08 00:11:28;;;;;;;;;;;6.00;69.10;;;;;;4053420;29;20534;-85
2023/04/08 00:13:49;;;;;;;;;;;6.00;69.20;;;;;;4053413;29;19922;-82
2023/04/08 00:16:10;;;;;;;;;;;6.00;69.30;;;;;;4047939;29;19915;-84
2023/04/08 00:18:30;;;;;;;;;;;6.00;69.60;;;;;;4039255;29;19922;-83
2023/04/08 00:20:51;;;;;;;;;;;6.00;69.20;;;;;;4053197;29;20289;-83
2023/04/08 00:23:12;;;;;;;;;;;6.00;69.30;;;;;;4049877;29;20405;-83
2023/04/08 00:25:32;;;;;;;;;;;6.00;69.70;;;;;;4038194;29;21301;-84
2023/04/08 00:27:53;;;;;;;;;;;6.00;69.70;;;;;;4054563;29;21581;-82
2023/04/08 00:30:14;;;;;;;;;;;6.00;69.60;;;;;;4052087;29;20623;-85
2023/04/08 00:32:35;;;;;;;;;;;6.00;69.70;;;;;;4054681;29;19921;-83
2023/04/08 00:34:55;;;;;;;;;;;6.00;69.80;;;;;;4057044;29;19946;-85
2023/04/08 00:37:16;;;;;;;;;;;6.00;70.00;;;;;;4067290;29;19991;-83
2023/04/08 00:39:36;;;;;;;;;;;6.00;70.00;;;;;;4063537;29;19919;-83
2023/04/08 00:41:57;;;;;;;;;;;6.00;70.10;;;;;;4059056;29;20574;-84
2023/04/08 00:43:58;;;;;;;;;;;6.00;70.00;;;;;;4049737;29;19958;-84
2023/04/08 00:45:58;;;;;;;;;;;6.00;69.70;;;;;;4053496;29;19921;-84
2023/04/08 00:47:59;;;;;;;;;;;6.10;70.00;;;;;;4038441;29;19916;-83
2023/04/08 00:50:00;;;;;;;;;;;6.00;70.20;;;;;;4050094;29;20705;-84
2023/04/08 00:52:00;;;;;;;;;;;6.10;70.00;;;;;;4044893;29;19926;-83
2023/04/08 00:54:03;;;;;;;;;;;6.10;70.30;;;;;;4050096;29;19915;-83
2023/04/08 00:56:04;;;;;;;;;;;6.10;70.30;;;;;;4052349;29;19931;-81
2023/04/08 00:58:04;;;;;;;;;;;6.10;70.40;;;;;;4052264;29;20096;-84
2023/04/08 01:00:05;;;;;;;;;;;6.00;70.60;;;;;;4053795;29;19984;-84
2023/04/08 01:02:05;;;;;;;;;;;6.00;70.70;;;;;;4053107;29;19919;-83
2023/04/08 01:04:12;;;;;;;;;;;6.10;70.70;;;;;;4036786;29;19940;-83
2023/04/08 01:06:25;;;;;;;;;;;6.10;70.50;;;;;;4045820;29;19919;-83
2023/04/08 01:08:28;;;;;;;;;;;6.10;70.80;;;;;;4047859;29;19955;-84
2023/04/08 01:10:30;;;;;;;;;;;6.10;70.90;;;;;;4051239;29;19915;-82
2023/04/08 01:12:31;;;;;;;;;;;6.20;71.10;;;;;;4053431;29;19919;-84
2023/04/08 01:14:34;;;;;;;;;;;6.10;71.10;;;;;;4036496;29;19916;-81
2023/04/08 01:16:37;;;;;;;;;;;6.00;71.20;;;;;;4050409;29;19912;-84
2023/04/08 01:18:38;;;;;;;;;;;6.00;71.40;;;;;;4052144;29;19912;-84
2023/04/08 01:20:39;;;;;;;;;;;6.10;71.60;;;;;;4053490;29;19915;-84
2023/04/08 01:22:45;;;;;;;;;;;6.00;71.50;;;;;;4051895;29;19947;-83
2023/04/08 01:24:46;;;;;;;;;;;6.00;71.60;;;;;;4049539;29;20035;-83
2023/04/08 01:26:47;;;;;;;;;;;6.10;71.80;;;;;;4049720;29;19917;-82
2023/04/08 01:28:49;;;;;;;;;;;6.00;72.00;;;;;;4036540;29;19975;-84
2023/04/08 01:30:50;;;;;;;;;;;6.00;72.10;;;;;;4049129;29;19915;-83
2023/04/08 01:32:54;;;;;;;;;;;6.00;72.30;;;;;;4050109;29;19920;-83
2023/04/08 01:34:55;;;;;;;;;;;6.00;72.30;;;;;;4038537;29;20015;-83
2023/04/08 01:36:56;;;;;;;;;;;6.00;72.30;;;;;;4048278;29;19979;-83
2023/04/08 01:38:58;;;;;;;;;;;5.90;72.30;;;;;;4032087;29;19915;-84
2023/04/08 01:40:59;;;;;;;;;;;5.90;72.50;;;;;;4051252;29;20006;-84
2023/04/08 01:43:00;;;;;;;;;;;5.90;72.60;;;;;;4052182;29;19916;-82
2023/04/08 01:45:02;;;;;;;;;;;6.00;72.60;;;;;;4052901;29;19923;-83
2023/04/08 01:47:03;;;;;;;;;;;6.00;72.60;;;;;;4052974;29;19990;-82
2023/04/08 01:49:04;;;;;;;;;;;6.00;72.50;;;;;;4043954;29;19935;-82
2023/04/08 01:51:05;;;;;;;;;;;6.00;72.50;;;;;;4038399;29;20063;-82
2023/04/08 01:53:07;;;;;;;;;;;6.10;72.50;;;;;;4043696;29;19915;-83
2023/04/08 01:55:08;;;;;;;;;;;6.00;72.40;;;;;;4044856;29;19918;-83
2023/04/08 01:57:10;;;;;;;;;;;6.00;72.40;;;;;;4048213;29;19911;-82
2023/04/08 01:59:12;;;;;;;;;;;6.00;72.50;;;;;;4040668;29;19916;-83
2023/04/08 02:01:16;;;;;;;;;;;6.10;72.50;;;;;;4043652;29;19942;-83
2023/04/08 02:03:17;;;;;;;;;;;6.00;72.40;;;;;;4044842;29;19967;-84
2023/04/08 02:05:18;;;;;;;;;;;6.00;72.50;;;;;;4050622;29;19911;-83
2023/04/08 02:07:19;;;;;;;;;;;6.10;72.50;;;;;;4048378;29;19915;-82
2023/04/08 02:09:19;;;;;;;;;;;6.10;72.50;;;;;;4048638;29;19908;-81
2023/04/08 02:11:20;;;;;;;;;;;6.10;72.50;;;;;;4049614;29;19915;-83
2023/04/08 02:13:20;;;;;;;;;;;6.10;72.50;;;;;;4051678;29;19922;-84
2023/04/08 02:15:21;;;;;;;;;;;6.10;72.50;;;;;;4050122;29;19920;-84
2023/04/08 02:17:28;;;;;;;;;;;6.10;72.60;;;;;;4049732;29;19919;-84
2023/04/08 02:19:30;;;;;;;;;;;6.10;72.60;;;;;;4050511;29;19982;-82
2023/04/08 02:21:33;;;;;;;;;;;6.10;72.70;;;;;;4052418;29;19919;-83
2023/04/08 02:23:34;;;;;;;;;;;6.10;72.60;;;;;;4050892;29;19922;-84
2023/04/08 02:25:37;;;;;;;;;;;6.10;72.60;;;;;;4051065;29;19967;-84
2023/04/08 02:27:38;;;;;;;;;;;6.00;73.50;;;;;;4036151;29;19922;-84
2023/04/08 02:29:40;;;;;;;;;;;6.00;72.70;;;;;;4054192;29;20002;-83
2023/04/08 02:31:42;;;;;;;;;;;6.10;72.80;;;;;;4046778;29;19924;-83
2023/04/08 02:33:42;;;;;;;;;;;6.10;72.80;;;;;;4050186;29;19919;-83
2023/04/08 02:35:43;;;;;;;;;;;6.10;72.80;;;;;;4049265;29;19958;-83
2023/04/08 02:37:45;;;;;;;;;;;6.00;72.90;;;;;;4053840;29;19916;-84
2023/04/08 02:39:45;;;;;;;;;;;6.10;72.90;;;;;;4051561;29;19915;-84
2023/04/08 02:41:46;;;;;;;;;;;6.10;72.90;;;;;;4045622;29;19915;-84
2023/04/08 02:43:46;;;;;;;;;;;6.00;73.20;;;;;;4046678;29;19924;-84
2023/04/08 02:45:47;;;;;;;;;;;6.10;73.10;;;;;;4046735;29;20018;-84
2023/04/08 02:47:48;;;;;;;;;;;6.10;73.20;;;;;;4047296;29;19919;-82
2023/04/08 02:49:52;;;;;;;;;;;6.00;73.20;;;;;;4053522;29;19922;-82
2023/04/08 02:51:52;;;;;;;;;;;6.10;73.30;;;;;;4049419;29;20054;-83
2023/04/08 02:53:53;;;;;;;;;;;6.10;74.10;;;;;;4046548;29;19953;-83
2023/04/08 02:55:53;;;;;;;;;;;6.00;73.40;;;;;;4045664;29;19954;-82
2023/04/08 02:57:54;;;;;;;;;;;6.10;73.50;;;;;;4045783;29;19918;-81
2023/04/08 02:59:54;;;;;;;;;;;6.00;73.50;;;;;;4048086;29;19962;-83
2023/04/08 03:01:55;;;;;;;;;;;6.10;73.90;;;;;;4048675;29;19923;-82
2023/04/08 03:03:55;;;;;;;;;;;6.00;73.90;;;;;;4048274;29;19912;-83
2023/04/08 03:05:56;;;;;;;;;;;6.00;74.00;;;;;;4048465;29;19921;-86
2023/04/08 03:07:57;;;;;;;;;;;6.00;74.10;;;;;;4027517;29;20053;-82
2023/04/08 03:09:57;;;;;;;;;;;6.00;74.10;;;;;;4052349;29;19943;-81
2023/04/08 03:11:58;;;;;;;;;;;6.00;74.20;;;;;;4029820;29;20064;-82
2023/04/08 03:13:58;;;;;;;;;;;6.00;74.30;;;;;;4050344;29;19919;-83
2023/04/08 03:15:59;;;;;;;;;;;6.00;74.30;;;;;;4048233;29;20412;-84
2023/04/08 03:17:59;;;;;;;;;;;6.00;74.20;;;;;;4035338;29;19920;-84
2023/04/08 03:20:00;;;;;;;;;;;6.00;74.10;;;;;;4053716;29;19978;-83
2023/04/08 03:22:01;;;;;;;;;;;6.00;74.10;;;;;;4050097;29;19915;-83
2023/04/08 03:24:01;;;;;;;;;;;6.00;74.30;;;;;;4048905;29;19911;-83
2023/04/08 03:26:02;;;;;;;;;;;6.00;74.20;;;;;;4051059;29;19971;-84
2023/04/08 03:28:02;;;;;;;;;;;6.00;74.30;;;;;;4047473;29;19968;-82
2023/04/08 03:30:03;;;;;;;;;;;6.00;74.40;;;;;;4051382;29;19912;-82
2023/04/08 03:32:03;;;;;;;;;;;6.00;74.40;;;;;;4033782;29;19924;-82
2023/04/08 03:34:04;;;;;;;;;;;6.00;74.40;;;;;;4052460;29;19948;-83
2023/04/08 03:36:05;;;;;;;;;;;6.00;74.70;;;;;;4050728;29;19926;-83
2023/04/08 03:38:06;;;;;;;;;;;6.00;74.60;;;;;;4048234;29;19911;-83
2023/04/08 03:40:07;;;;;;;;;;;6.00;74.70;;;;;;4037341;29;19933;-82
2023/04/08 03:42:07;;;;;;;;;;;6.00;75.00;;;;;;4045463;29;19970;-83
2023/04/08 03:44:07;;;;;;;;;;;6.00;75.10;;;;;;4044941;29;20351;-83
2023/04/08 03:46:08;;;;;;;;;;;6.00;75.10;;;;;;4044066;29;20617;-83
2023/04/08 03:48:09;;;;;;;;;;;5.90;75.30;;;;;;4047581;29;20015;-83
2023/04/08 03:50:09;;;;;;;;;;;5.90;75.50;;;;;;4047312;29;19922;-84
2023/04/08 03:52:10;;;;;;;;;;;5.90;75.50;;;;;;4043063;29;20374;-83
2023/04/08 03:54:10;;;;;;;;;;;6.00;75.70;;;;;;4049615;29;19911;-84
2023/04/08 03:56:11;;;;;;;;;;;5.90;75.70;;;;;;4048960;29;19963;-83
2023/04/08 03:58:11;;;;;;;;;;;6.00;76.00;;;;;;4042093;29;19922;-83
2023/04/08 04:00:12;;;;;;;;;;;5.90;75.80;;;;;;4031718;29;19920;-83
2023/04/08 04:02:12;;;;;;;;;;;5.90;76.00;;;;;;4052884;29;19927;-83
2023/04/08 04:04:13;;;;;;;;;;;5.90;76.10;;;;;;4059756;29;19911;-83
2023/04/08 04:06:14;;;;;;;;;;;5.90;76.20;;;;;;4056067;29;19942;-83
2023/04/08 04:08:14;;;;;;;;;;;5.90;76.20;;;;;;4050758;29;19915;-84
2023/04/08 04:10:15;;;;;;;;;;;5.90;76.50;;;;;;4051258;29;19911;-84
2023/04/08 04:12:15;;;;;;;;;;;5.90;76.50;;;;;;4052469;29;19911;-84
2023/04/08 04:14:16;;;;;;;;;;;5.90;76.50;;;;;;4054453;29;20088;-83
2023/04/08 04:16:17;;;;;;;;;;;5.90;76.60;;;;;;4048879;29;19919;-84
2023/04/08 04:18:17;;;;;;;;;;;5.90;76.60;;;;;;4055336;29;19953;-82
2023/04/08 04:20:18;;;;;;;;;;;5.90;76.80;;;;;;4050885;29;19923;-84
2023/04/08 04:22:18;;;;;;;;;;;5.90;76.90;;;;;;4050041;29;19915;-83
2023/04/08 04:24:19;;;;;;;;;;;5.80;76.90;;;;;;4051748;29;19926;-84
2023/04/08 04:26:19;;;;;;;;;;;5.90;77.10;;;;;;4051664;29;19974;-83
2023/04/08 04:28:20;;;;;;;;;;;5.80;77.00;;;;;;4051181;29;19916;-83
2023/04/08 04:30:21;;;;;;;;;;;5.90;77.20;;;;;;4050375;29;19952;-83
2023/04/08 04:32:21;;;;;;;;;;;5.80;76.90;;;;;;4050359;29;19915;-83
2023/04/08 04:34:22;;;;;;;;;;;5.90;77.10;;;;;;4051364;29;19924;-83
2023/04/08 04:36:22;;;;;;;;;;;5.90;77.10;;;;;;4034039;29;19936;-84
2023/04/08 04:38:23;;;;;;;;;;;5.80;77.20;;;;;;4050482;29;20001;-82
2023/04/08 04:40:23;;;;;;;;;;;5.80;77.20;;;;;;4051509;29;19911;-83
2023/04/08 04:42:24;;;;;;;;;;;5.90;77.30;;;;;;4048412;29;19979;-84
2023/04/08 04:44:24;;;;;;;;;;;5.80;77.50;;;;;;4050337;29;20388;-83
2023/04/08 04:46:25;;;;;;;;;;;5.80;77.70;;;;;;4053613;29;19950;-84
2023/04/08 04:48:25;;;;;;;;;;;5.90;77.60;;;;;;4053787;29;19923;-84
2023/04/08 04:50:26;;;;;;;;;;;5.90;77.60;;;;;;4052514;29;19959;-83
2023/04/08 04:52:26;;;;;;;;;;;5.90;77.70;;;;;;4052394;29;19911;-84
2023/04/08 04:54:27;;;;;;;;;;;5.90;77.60;;;;;;4049769;29;20010;-83
2023/04/08 04:56:28;;;;;;;;;;;5.90;77.60;;;;;;4052205;29;19911;-84
2023/04/08 04:58:28;;;;;;;;;;;5.80;77.60;;;;;;4034199;29;19931;-83
2023/04/08 05:00:29;;;;;;;;;;;5.90;78.00;;;;;;4051158;29;19919;-84
2023/04/08 05:02:30;;;;;;;;;;;5.90;77.80;;;;;;4052955;29;19987;-84
2023/04/08 05:04:30;;;;;;;;;;;5.90;77.90;;;;;;4054194;29;19921;-84
2023/04/08 05:06:31;;;;;;;;;;;5.90;77.80;;;;;;4048770;29;19987;-83
2023/04/08 05:08:31;;;;;;;;;;;5.90;77.80;;;;;;4051101;29;19915;-84
2023/04/08 05:10:32;;;;;;;;;;;5.90;78.60;;;;;;4051169;29;19919;-85
2023/04/08 05:12:37;;;;;;;;;;;6.00;77.90;;;;;;4037306;29;19944;-84
2023/04/08 05:14:38;;;;;;;;;;;5.90;77.90;;;;;;4053679;29;19972;-83
2023/04/08 05:16:38;;;;;;;;;;;6.00;78.00;;;;;;4047487;29;20369;-84
2023/04/08 05:18:39;;;;;;;;;;;6.00;77.90;;;;;;4052844;29;19917;-83
2023/04/08 05:20:39;;;;;;;;;;;6.00;78.10;;;;;;4035839;29;19931;-84
2023/04/08 05:22:41;;;;;;;;;;;6.00;78.30;;;;;;4052343;29;20478;-84
2023/04/08 05:24:41;;;;;;;;;;;5.90;78.10;;;;;;4054891;29;19915;-83
2023/04/08 05:26:42;;;;;;;;;;;6.00;78.30;;;;;;4055151;29;19926;-84
2023/04/08 05:28:42;;;;;;;;;;;6.00;78.50;;;;;;4047042;29;19919;-83
2023/04/08 05:30:47;;;;;;;;;;;6.10;78.40;;;;;;4041102;29;19919;-82
2023/04/08 05:32:48;;;;;;;;;;;6.00;78.40;;;;;;4052618;29;19935;-84
2023/04/08 05:34:48;;;;;;;;;;;6.10;78.50;;;;;;4053818;29;19912;-83
2023/04/08 05:36:52;;;;;;;;;;;6.00;78.40;;;;;;4060391;29;19946;-83
2023/04/08 05:38:52;;;;;;;;;;;6.00;78.50;;;;;;4041985;29;20002;-83
2023/04/08 05:40:53;;;;;;;;;;;6.10;78.50;;;;;;4047472;29;19962;-83
2023/04/08 05:42:53;;;;;;;;;;;6.10;78.50;;;;;;4047275;29;20032;-83
2023/04/08 05:44:54;;;;;;;;;;;6.00;78.50;;;;;;4048465;29;20465;-83
2023/04/08 05:46:56;;;;;;;;;;;6.00;78.60;;;;;;4053176;29;20011;-84
2023/04/08 05:48:56;;;;;;;;;;;6.00;78.70;;;;;;4047224;29;20187;-85
2023/04/08 05:50:57;;;;;;;;;;;6.00;78.80;;;;;;4053438;29;20297;-84
2023/04/08 05:52:57;;;;;;;;;;;6.10;78.60;;;;;;4052548;29;19927;-84
2023/04/08 05:54:58;;;;;;;;;;;6.10;78.70;;;;;;4050369;29;19915;-83
2023/04/08 05:56:58;;;;;;;;;;;6.00;78.60;;;;;;4051368;29;20004;-83
2023/04/08 05:58:59;;;;;;;;;;;6.10;78.80;;;;;;4051073;29;20034;-84
2023/04/08 06:01:00;;;;;;;;;;;6.00;78.80;;;;;;4037483;29;20279;-84
2023/04/08 06:03:00;;;;;;;;;;;6.10;79.00;;;;;;4049123;29;19975;-84
2023/04/08 06:05:02;;;;;;;;;;;6.10;78.80;;;;;;4051367;29;19915;-84
2023/04/08 06:07:04;;;;;;;;;;;6.10;78.70;;;;;;4052655;29;19950;-84
2023/04/08 06:09:05;;;;;;;;;;;6.10;78.80;;;;;;4049795;29;19920;-83
2023/04/08 06:13:37;;;;;;;;;;;6.00;78.80;;;;;;4074875;29;19930;-84
2023/04/08 06:15:38;;;;;;;;;;;6.10;79.00;;;;;;4080664;29;20312;-83
2023/04/08 06:18:00;;;;;;;;;;;6.10;79.00;;;;;;4079234;29;20005;-83
2023/04/08 06:22:29;;;;;;;;;;;6.10;78.80;;;;;;4030202;29;20427;-85
2023/04/08 06:24:30;;;;;;;;;;;6.20;78.90;;;;;;4034331;29;19923;-84
2023/04/08 06:26:30;;;;;;;;;;;6.20;78.90;;;;;;4032302;29;19950;-84
2023/04/08 06:28:31;;;;;;;;;;;6.20;78.90;;;;;;4016840;29;20382;-84
2023/04/08 06:30:32;;;;;;;;;;;6.20;79.00;;;;;;4019392;29;19928;-82
2023/04/08 06:32:32;;;;;;;;;;;6.20;78.70;;;;;;4027139;29;20435;-82
2023/04/08 06:34:33;;;;;;;;;;;6.20;78.60;;;;;;4026815;29;20086;-83
2023/04/08 06:36:33;;;;;;;;;;;6.20;78.70;;;;;;4028354;29;19930;-84
2023/04/08 06:38:34;;;;;;;;;;;6.30;78.80;;;;;;4029535;29;20427;-84
2023/04/08 06:40:37;;;;;;;;;;;6.20;78.60;;;;;;4018292;29;20648;-82
2023/04/08 06:42:39;;;;;;;;;;;6.20;78.60;;;;;;4026837;29;19920;-83
2023/04/08 06:44:40;;;;;;;;;;;6.30;78.70;;;;;;4015552;29;19944;-83
2023/04/08 06:46:40;;;;;;;;;;;6.20;78.40;;;;;;4033466;29;20014;-84
2023/04/08 06:48:41;;;;;;;;;;;6.30;78.60;;;;;;4031363;29;19918;-86
2023/04/08 06:50:41;;;;;;;;;;;6.30;78.80;;;;;;4028709;29;19955;-84
2023/04/08 06:52:42;;;;;;;;;;;6.20;78.60;;;;;;4032352;29;19926;-83
2023/04/08 06:54:42;;;;;;;;;;;6.30;78.50;;;;;;4030920;29;19915;-84
2023/04/08 06:56:43;;;;;;;;;;;6.30;78.50;;;;;;4031601;29;19920;-84
2023/04/08 06:58:43;;;;;;;;;;;6.30;78.60;;;;;;4032055;29;19916;-83
2023/04/08 07:00:44;;;;;;;;;;;6.30;78.40;;;;;;4063132;29;19927;-84
2023/04/08 07:02:45;;;;;;;;;;;6.30;78.30;;;;;;4058423;29;20001;-84
2023/04/08 07:04:45;;;;;;;;;;;6.40;78.50;;;;;;4045186;29;19915;-82
2023/04/08 07:06:46;;;;;;;;;;;6.40;78.20;;;;;;4061135;29;19910;-83
2023/04/08 07:08:46;;;;;;;;;;;6.50;78.30;;;;;;4042638;29;19919;-84
2023/04/08 07:10:47;;;;;;;;;;;6.50;78.20;;;;;;4051838;29;19919;-83
2023/04/08 07:12:47;;;;;;;;;;;6.50;78.10;;;;;;4059927;29;19915;-84
2023/04/08 07:14:48;;;;;;;;;;;6.60;77.80;;;;;;4048926;29;19930;-85
2023/04/08 07:16:48;;;;;;;;;;;6.60;77.90;;;;;;4045412;29;19915;-83
2023/04/08 07:18:50;;;;;;;;;;;6.70;77.80;;;;;;4056515;29;20034;-85
2023/04/08 07:20:55;;;;;;;;;;;6.70;77.80;;;;;;4061198;29;20065;-85
2023/04/08 07:22:55;;;;;;;;;;;6.70;77.30;;;;;;4042744;29;19943;-84
2023/04/08 07:24:56;;;;;;;;;;;6.80;77.10;;;;;;4072838;29;19918;-84
2023/04/08 07:26:57;;;;;;;;;;;6.90;77.20;;;;;;4067990;29;19954;-85
2023/04/08 07:28:57;;;;;;;;;;;6.80;77.10;;;;;;4048208;29;20003;-83
2023/04/08 07:31:11;;;;;;;;;;;7.00;77.00;;;;;;4072685;29;19927;-83
2023/04/08 07:33:11;;;;;;;;;;;6.90;76.80;;;;;;4063859;29;19947;-84
2023/04/08 07:35:12;;;;;;;;;;;6.90;76.40;;;;;;4066732;29;20581;-84
2023/04/08 07:37:12;;;;;;;;;;;6.90;76.10;;;;;;4066198;29;20035;-84
2023/04/08 07:39:13;;;;;;;;;;;6.90;75.80;;;;;;4058143;29;19922;-83
2023/04/08 07:41:13;;;;;;;;;;;6.90;75.90;;;;;;4067258;29;19929;-84
2023/04/08 07:43:14;;;;;;;;;;;7.00;75.80;;;;;;4070489;29;20686;-81
2023/04/08 07:45:14;;;;;;;;;;;7.00;75.70;;;;;;4068257;29;20006;-84
2023/04/08 07:47:21;;;;;;;;;;;7.10;75.90;;;;;;4053405;29;19944;-83
2023/04/08 07:49:21;;;;;;;;;;;7.10;76.20;;;;;;4060358;29;19920;-84
2023/04/08 07:51:22;;;;;;;;;;;7.20;75.90;;;;;;4040563;29;19960;-83
2023/04/08 07:53:24;;;;;;;;;;;7.10;76.80;;;;;;4050071;29;19915;-85
2023/04/08 07:55:24;;;;;;;;;;;7.20;76.10;;;;;;4052445;29;19970;-84
2023/04/08 07:57:25;;;;;;;;;;;7.40;76.10;;;;;;4067342;29;19918;-85
2023/04/08 07:59:26;;;;;;;;;;;7.40;76.00;;;;;;4069037;29;19918;-86
2023/04/08 08:01:29;;;;;;;;;;;7.40;74.90;;;;;;4058064;29;19926;-85
2023/04/08 08:03:30;;;;;;;;;;;7.40;74.60;;;;;;4064717;29;20037;-86
2023/04/08 08:05:31;;;;;;;;;;;7.50;73.40;;;;;;4043736;29;19942;-84
2023/04/08 08:07:32;;;;;;;;;;;7.50;73.30;;;;;;4045906;29;19915;-84
2023/04/08 08:09:32;;;;;;;;;;;7.50;72.80;;;;;;4057651;29;20454;-85
2023/04/08 08:11:33;;;;;;;;;;;7.50;73.10;;;;;;4062507;29;19917;-85
2023/04/08 08:13:33;;;;;;;;;;;7.50;73.00;;;;;;4059426;29;21684;-84
2023/04/08 08:15:34;;;;;;;;;;;7.50;72.20;;;;;;4057344;29;20006;-86
2023/04/08 08:17:40;;;;;;;;;;;7.40;72.40;;;;;;4049645;29;19970;-85
2023/04/08 08:19:41;;;;;;;;;;;7.40;72.50;;;;;;4059972;29;20053;-85
2023/04/08 08:21:41;;;;;;;;;;;7.40;72.50;;;;;;4059378;29;19919;-85
2023/04/08 08:23:42;;;;;;;;;;;7.30;72.60;;;;;;4058576;29;19919;-85
2023/04/08 08:25:42;;;;;;;;;;;7.40;73.30;;;;;;4045459;29;19975;-85
2023/04/08 08:27:44;;;;;;;;;;;7.30;73.10;;;;;;4043398;29;19915;-85
2023/04/08 08:29:44;;;;;;;;;;;7.40;73.50;;;;;;4044710;29;19919;-84
2023/04/08 08:31:51;;;;;;;;;;;7.40;73.40;;;;;;4059006;29;19922;-86
2023/04/08 08:33:51;;;;;;;;;;;7.40;73.40;;;;;;4065894;29;19916;-85
2023/04/08 08:35:52;;;;;;;;;;;7.40;73.40;;;;;;4047100;29;19943;-87
2023/04/08 08:37:52;;;;;;;;;;;7.50;73.30;;;;;;4065511;29;19915;-86
2023/04/08 08:39:53;;;;;;;;;;;7.50;73.10;;;;;;4051481;29;19939;-85
2023/04/08 08:41:55;;;;;;;;;;;7.40;72.30;;;;;;4066177;29;19965;-85
2023/04/08 08:43:56;;;;;;;;;;;7.50;72.40;;;;;;4062699;29;19919;-85
2023/04/08 08:45:56;;;;;;;;;;;7.50;72.60;;;;;;4045932;29;19918;-85
2023/04/08 08:47:57;;;;;;;;;;;7.60;72.70;;;;;;4068555;29;20951;-85
2023/04/08 08:49:57;;;;;;;;;;;7.70;72.70;;;;;;4064232;29;19915;-87
2023/04/08 08:51:58;;;;;;;;;;;7.60;72.20;;;;;;4065306;29;20374;-86
2023/04/08 08:54:03;;;;;;;;;;;7.60;72.30;;;;;;4046681;29;20322;-87
2023/04/08 08:56:07;;;;;;;;;;;7.60;71.90;;;;;;4065487;29;19916;-85
2023/04/08 08:58:19;;;;;;;;;;;7.60;72.10;;;;;;4049866;29;19964;-85
2023/04/08 09:00:34;;;;;;;;;;;7.60;71.60;;;;;;4049284;29;19927;-86
2023/04/08 09:02:35;;;;;;;;;;;7.70;71.80;;;;;;4064598;29;19915;-86
2023/04/08 09:04:35;;;;;;;;;;;7.70;71.90;;;;;;4069998;29;19935;-85
2023/04/08 09:06:36;;;;;;;;;;;7.70;71.90;;;;;;4064589;29;19966;-85
2023/04/08 09:08:37;;;;;;;;;;;7.70;71.50;;;;;;4063467;29;19915;-85
2023/04/08 09:10:38;;;;;;;;;;;7.70;71.50;;;;;;4048867;29;19912;-85
2023/04/08 09:12:57;;;;;;;;;;;7.70;71.60;;;;;;4061887;29;19929;-85
2023/04/08 09:15:03;;;;;;;;;;;7.70;72.70;;;;;;4045656;29;19947;-85
2023/04/08 09:17:04;;;;;;;;;;;7.70;72.00;;;;;;4062369;29;19925;-85
2023/04/08 09:22:05;;;;;;;;;;;7.80;72.50;;;;;;4061521;29;19974;-87
2023/04/08 09:24:06;;;;;;;;;;;7.80;71.90;;;;;;4058934;29;21109;-84
2023/04/08 09:26:08;;;;;;;;;;;7.80;71.90;;;;;;4061733;29;19911;-84
2023/04/08 09:28:18;;;;;;;;;;;7.80;71.60;;;;;;4063309;29;20076;-84
2023/04/08 09:30:22;;;;;;;;;;;7.80;71.50;;;;;;4061666;29;21219;-85
2023/04/08 09:32:23;;;;;;;;;;;7.90;71.30;;;;;;4065523;29;20254;-84
2023/04/08 09:34:24;;;;;;;;;;;8.00;70.90;;;;;;4066937;29;19922;-85
2023/04/08 09:36:28;;;;;;;;;;;8.10;70.90;;;;;;4044252;29;20330;-84
2023/04/08 09:38:28;;;;;;;;;;;8.00;70.30;;;;;;4046995;29;19919;-83
2023/04/08 09:40:32;;;;;;;;;;;8.00;70.00;;;;;;4043351;29;20010;-86
2023/04/08 09:42:34;;;;;;;;;;;8.00;70.10;;;;;;4061821;29;20341;-85
2023/04/08 09:44:36;;;;;;;;;;;8.10;70.40;;;;;;4061517;29;19922;-85
2023/04/08 09:46:46;;;;;;;;;;;8.10;69.90;;;;;;4051803;29;19983;-86
2023/04/08 09:49:16;;;;;;;;;;;8.10;69.90;;;;;;4060861;29;19915;-86
2023/04/08 09:51:18;;;;;;;;;;;8.10;69.40;;;;;;4029745;29;19918;-83
2023/04/08 09:53:25;;;;;;;;;;;8.10;69.90;;;;;;4020016;29;19923;-83
2023/04/08 09:55:26;;;;;;;;;;;8.20;70.00;;;;;;4029717;29;20413;-84
2023/04/08 09:57:40;;;;;;;;;;;8.40;70.90;;;;;;4032433;29;19926;-83
2023/04/08 09:59:44;;;;;;;;;;;8.20;70.00;;;;;;4018015;29;19920;-84
2023/04/08 10:01:52;;;;;;;;;;;8.20;70.10;;;;;;4020379;29;19927;-84
2023/04/08 10:03:53;;;;;;;;;;;8.20;69.40;;;;;;4018036;29;20494;-82
2023/04/08 10:05:55;;;;;;;;;;;8.10;69.60;;;;;;4029637;29;19923;-84
2023/04/08 10:07:56;;;;;;;;;;;8.20;70.40;;;;;;4031511;29;19955;-83
2023/04/08 10:09:57;;;;;;;;;;;8.30;69.50;;;;;;4028585;29;19920;-83
2023/04/08 10:14:14;;;;;;;;;;;8.40;69.40;;;;;;4000681;27;19928;-83
2023/04/08 10:16:20;;;;;;;;;;;8.40;68.70;;;;;;4016911;29;19940;-82
2023/04/08 10:18:21;;;;;;;;;;;8.50;68.20;;;;;;4022410;29;19923;-84
2023/04/08 10:20:40;;;;;;;;;;;8.60;68.30;;;;;;4020001;29;20371;-83
2023/04/08 10:22:49;;;;;;;;;;;8.60;69.10;;;;;;4002978;29;21024;-83
2023/04/08 10:25:09;;;;;;;;;;;8.70;69.40;;;;;;4020908;29;20442;-84
2023/04/08 10:27:29;;;;;;;;;;;8.70;68.90;;;;;;4021551;29;21677;-83
2023/04/08 10:29:30;;;;;;;;;;;8.70;68.00;;;;;;4020965;29;20126;-84
2023/04/08 10:31:38;;;;;;;;;;;8.70;67.30;;;;;;4002479;29;19923;-85
2023/04/08 10:33:39;;;;;;;;;;;8.70;68.00;;;;;;4020469;29;19922;-84
2023/04/08 10:35:46;;;;;;;;;;;8.80;68.00;;;;;;4019132;29;19919;-83
2023/04/08 10:37:47;;;;;;;;;;;9.00;68.50;;;;;;4022949;29;19916;-83
2023/04/08 10:39:48;;;;;;;;;;;8.80;67.60;;;;;;3998723;29;19939;-84
2023/04/08 10:41:49;;;;;;;;;;;8.90;67.70;;;;;;4022630;29;19927;-83
2023/04/08 10:43:50;;;;;;;;;;;8.90;67.80;;;;;;4022239;29;20446;-83
2023/04/08 10:45:52;;;;;;;;;;;9.00;67.70;;;;;;4007900;29;19920;-83
2023/04/08 10:47:52;;;;;;;;;;;9.00;67.60;;;;;;4020600;29;19963;-83
2023/04/08 10:49:53;;;;;;;;;;;9.10;67.70;;;;;;4007595;29;19940;-83
2023/04/08 10:51:56;;;;;;;;;;;9.10;67.40;;;;;;4007004;29;20048;-83
2023/04/08 10:54:04;;;;;;;;;;;9.10;66.60;;;;;;4009654;29;19909;-82
2023/04/08 10:56:16;;;;;;;;;;;9.10;66.90;;;;;;4009948;29;19900;-84
2023/04/08 10:58:17;;;;;;;;;;;9.20;67.10;;;;;;4019214;29;19959;-83
2023/04/08 11:00:18;;;;;;;;;;;9.20;68.00;;;;;;4005681;29;19916;-83
2023/04/08 11:02:18;;;;;;;;;;;9.30;68.50;;;;;;4021924;29;20059;-84
2023/04/08 11:04:19;;;;;;;;;;;9.30;68.00;;;;;;4019224;29;19908;-82
2023/04/08 11:06:19;;;;;;;;;;;9.40;67.20;;;;;;4018384;29;19968;-85
2023/04/08 11:08:26;;;;;;;;;;;9.50;66.60;;;;;;4019456;29;19920;-82
2023/04/08 11:10:27;;;;;;;;;;;9.60;66.00;;;;;;4010992;29;19931;-82
2023/04/08 11:12:28;;;;;;;;;;;9.60;66.10;;;;;;4022761;29;20023;-82
2023/04/08 11:14:30;;;;;;;;;;;9.60;65.60;;;;;;4020288;29;19920;-83
2023/04/08 11:16:31;;;;;;;;;;;9.50;64.30;;;;;;4013611;29;19919;-84
2023/04/08 11:18:33;;;;;;;;;;;9.60;65.10;;;;;;4016050;29;19984;-84
2023/04/08 11:20:35;;;;;;;;;;;9.60;64.80;;;;;;4015692;29;19990;-83
2023/04/08 11:22:36;;;;;;;;;;;9.70;64.90;;;;;;4021905;29;19926;-84
2023/04/08 11:24:37;;;;;;;;;;;9.70;65.10;;;;;;4020387;29;19916;-84
2023/04/08 11:26:38;;;;;;;;;;;9.80;65.00;;;;;;3997526;29;19953;-84
2023/04/08 11:28:42;;;;;;;;;;;9.90;65.40;;;;;;4022775;29;19919;-86
2023/04/08 11:30:42;;;;;;;;;;;9.90;64.40;;;;;;4012804;29;19916;-84
2023/04/08 11:32:43;;;;;;;;;;;9.90;63.70;;;;;;3997845;29;20062;-84
2023/04/08 11:34:45;;;;;;;;;;;9.90;64.20;;;;;;4000277;29;19920;-84
2023/04/08 11:36:46;;;;;;;;;;;10.00;64.40;;;;;;4018650;29;20356;-84
2023/04/08 11:38:47;;;;;;;;;;;10.00;64.50;;;;;;4004471;29;19916;-84
2023/04/08 11:41:00;;;;;;;;;;;10.10;64.30;;;;;;4014847;29;19968;-85
2023/04/08 11:43:08;;;;;;;;;;;10.10;64.70;;;;;;4019408;29;19920;-84
2023/04/08 11:45:10;;;;;;;;;;;10.20;64.10;;;;;;3997120;29;19916;-82
2023/04/08 11:47:10;;;;;;;;;;;10.20;63.80;;;;;;4024101;29;19999;-82
2023/04/08 11:49:11;;;;;;;;;;;10.30;64.30;;;;;;4010700;29;19939;-80
2023/04/08 11:51:11;;;;;;;;;;;10.30;64.00;;;;;;4031957;23;19916;-85
2023/04/08 11:53:23;;;;;;;;;;;10.40;63.90;;;;;;4071131;29;19926;-84
2023/04/08 11:55:25;;;;;;;;;;;10.40;63.50;;;;;;4065757;29;19911;-84
2023/04/08 11:57:29;;;;;;;;;;;10.60;64.00;;;;;;4066068;29;19907;-84
2023/04/08 11:59:29;;;;;;;;;;;10.50;63.00;;;;;;4072879;29;19919;-85
2023/04/08 12:01:30;;;;;;;;;;;10.50;61.70;;;;;;4065497;29;19943;-83
2023/04/08 12:03:31;;;;;;;;;;;10.50;62.20;;;;;;4067040;29;19919;-82
2023/04/08 12:05:31;;;;;;;;;;;10.50;61.20;;;;;;4050961;29;19946;-84
2023/04/08 12:07:32;;;;;;;;;;;10.50;61.10;;;;;;4068050;29;19933;-81
2023/04/08 12:09:33;;;;;;;;;;;10.30;61.30;;;;;;4068470;29;19943;-83
2023/04/08 12:11:33;;;;;;;;;;;10.30;61.00;;;;;;4063084;29;19923;-84
2023/04/08 12:13:34;;;;;;;;;;;10.20;61.10;;;;;;4050482;29;19948;-85
2023/04/08 12:15:34;;;;;;;;;;;10.30;62.20;;;;;;4062104;29;19940;-84